Time;durP1;ratioP1;P1;durP2;ratioP2;P2;SDS_P1;SDS_P2;PMS_P1;PMS_P2;Temp;Humidity;BMP_temperature;BMP_pressure;BME280_temperature;BME280_humidity;BME280_pressure;Samples;Min_cycle;Max_cycle;Signal;HPM_P1;HPM_P2
2023/05/14 00:00:51;;;;;;;;;;;12.50;82.40;;;;;;5034822;28;19917;-83
2023/05/14 00:03:16;;;;;;;;;;;12.40;83.40;;;;;;5034880;28;20637;-83
2023/05/14 00:05:42;;;;;;;;;;;12.50;83.70;;;;;;5061321;22;19929;-85
2023/05/14 00:08:07;;;;;;;;;;;12.30;83.70;;;;;;5052702;28;19923;-86
2023/05/14 00:10:36;;;;;;;;;;;12.30;84.30;;;;;;5045656;28;20008;-86
2023/05/14 00:13:04;;;;;;;;;;;12.40;84.10;;;;;;5044711;28;19962;-86
2023/05/14 00:15:33;;;;;;;;;;;12.40;83.90;;;;;;5046093;28;19912;-86
2023/05/14 00:18:14;;;;;;;;;;;12.30;83.40;;;;;;5052339;28;20403;-90
2023/05/14 00:20:39;;;;;;;;;;;12.30;83.50;;;;;;5047263;28;19913;-88
2023/05/14 00:23:08;;;;;;;;;;;12.10;83.90;;;;;;5052169;28;19947;-85
2023/05/14 00:25:33;;;;;;;;;;;12.10;84.20;;;;;;5031960;28;19917;-86
2023/05/14 00:27:58;;;;;;;;;;;12.10;84.10;;;;;;5045946;28;19923;-85
2023/05/14 00:30:27;;;;;;;;;;;12.10;84.20;;;;;;5043818;28;19965;-86
2023/05/14 00:32:53;;;;;;;;;;;12.20;84.10;;;;;;5050223;28;19920;-86
2023/05/14 00:35:20;;;;;;;;;;;12.20;83.90;;;;;;5053142;28;20309;-86
2023/05/14 00:37:45;;;;;;;;;;;12.20;83.60;;;;;;5040683;28;20002;-86
2023/05/14 00:40:11;;;;;;;;;;;12.10;84.00;;;;;;5038180;28;20375;-87
2023/05/14 00:42:37;;;;;;;;;;;12.10;83.80;;;;;;5047988;28;20008;-87
2023/05/14 00:45:04;;;;;;;;;;;12.10;83.90;;;;;;5038411;28;20386;-86
2023/05/14 00:47:30;;;;;;;;;;;12.10;83.10;;;;;;5036071;28;20011;-87
2023/05/14 00:49:55;;;;;;;;;;;12.00;83.70;;;;;;5041833;28;20347;-87
2023/05/14 00:52:21;;;;;;;;;;;11.90;84.00;;;;;;5046278;28;19913;-87
2023/05/14 00:54:46;;;;;;;;;;;11.80;83.70;;;;;;5051536;28;20387;-87
2023/05/14 00:57:12;;;;;;;;;;;11.70;84.30;;;;;;5058616;28;19960;-86
2023/05/14 00:59:40;;;;;;;;;;;11.70;83.70;;;;;;5052913;28;19912;-87
2023/05/14 01:02:06;;;;;;;;;;;11.80;84.10;;;;;;5046077;28;19919;-87
2023/05/14 01:04:31;;;;;;;;;;;11.80;84.40;;;;;;5045813;28;20007;-87
2023/05/14 01:06:57;;;;;;;;;;;11.90;84.00;;;;;;5055286;28;19928;-87
2023/05/14 01:09:30;;;;;;;;;;;11.90;84.10;;;;;;5071611;28;19920;-86
2023/05/14 01:12:06;;;;;;;;;;;11.90;84.20;;;;;;5057279;28;20001;-86
2023/05/14 01:14:41;;;;;;;;;;;12.00;84.00;;;;;;5043218;28;21004;-86
2023/05/14 01:17:07;;;;;;;;;;;11.60;82.70;;;;;;5048050;28;19920;-87
2023/05/14 01:19:38;;;;;;;;;;;11.20;83.70;;;;;;5049732;28;19913;-86
2023/05/14 01:22:04;;;;;;;;;;;11.20;84.70;;;;;;5056163;28;19925;-85
2023/05/14 01:24:30;;;;;;;;;;;11.30;85.40;;;;;;5068241;28;19917;-87
2023/05/14 01:27:06;;;;;;;;;;;11.40;85.30;;;;;;5047419;28;20091;-86
2023/05/14 01:29:32;;;;;;;;;;;11.30;85.30;;;;;;5054668;28;20011;-86
2023/05/14 01:31:59;;;;;;;;;;;11.30;85.50;;;;;;5056682;28;19959;-86
2023/05/14 01:34:27;;;;;;;;;;;11.50;84.60;;;;;;5055518;28;19912;-86
2023/05/14 01:36:54;;;;;;;;;;;11.40;83.40;;;;;;5041485;28;19923;-86
2023/05/14 01:39:21;;;;;;;;;;;11.20;83.50;;;;;;5051588;28;20333;-87
2023/05/14 01:41:47;;;;;;;;;;;11.20;84.20;;;;;;5050498;28;19955;-87
2023/05/14 01:44:13;;;;;;;;;;;11.10;83.90;;;;;;5057656;28;20409;-86
2023/05/14 01:46:39;;;;;;;;;;;11.10;84.70;;;;;;5039682;28;20011;-86
2023/05/14 01:49:04;;;;;;;;;;;11.20;84.80;;;;;;5050767;28;19913;-86
2023/05/14 01:51:30;;;;;;;;;;;11.20;84.90;;;;;;5043905;28;19924;-86
2023/05/14 01:53:55;;;;;;;;;;;11.20;85.00;;;;;;5059370;28;19936;-86
2023/05/14 01:56:22;;;;;;;;;;;11.20;85.10;;;;;;5047283;28;20292;-86
2023/05/14 01:58:47;;;;;;;;;;;11.20;85.20;;;;;;5041058;28;19965;-87
2023/05/14 02:01:13;;;;;;;;;;;11.30;85.10;;;;;;5043296;28;19951;-87
2023/05/14 02:03:38;;;;;;;;;;;11.30;85.20;;;;;;5060498;28;19917;-86
2023/05/14 02:06:10;;;;;;;;;;;11.40;84.70;;;;;;5043827;28;19952;-86
2023/05/14 02:08:35;;;;;;;;;;;11.30;84.20;;;;;;5044098;28;19971;-86
2023/05/14 02:11:01;;;;;;;;;;;11.30;84.10;;;;;;5051004;28;20118;-87
2023/05/14 02:13:26;;;;;;;;;;;11.10;84.60;;;;;;5037169;28;19917;-87
2023/05/14 02:15:52;;;;;;;;;;;11.30;84.10;;;;;;5045853;28;20370;-86
2023/05/14 02:18:17;;;;;;;;;;;11.10;83.30;;;;;;5045663;28;20294;-86
2023/05/14 02:20:43;;;;;;;;;;;11.00;84.00;;;;;;5059000;28;19921;-86
2023/05/14 02:23:08;;;;;;;;;;;11.00;83.70;;;;;;5049454;28;19920;-86
2023/05/14 02:25:34;;;;;;;;;;;10.90;84.20;;;;;;5043526;28;20380;-86
2023/05/14 02:27:59;;;;;;;;;;;10.90;84.00;;;;;;5051950;28;19920;-86
2023/05/14 02:30:25;;;;;;;;;;;10.90;83.60;;;;;;5049688;28;20691;-86
2023/05/14 02:32:50;;;;;;;;;;;10.90;83.70;;;;;;5059094;28;20310;-86
2023/05/14 02:35:16;;;;;;;;;;;11.00;84.00;;;;;;5047535;28;19995;-86
2023/05/14 02:37:41;;;;;;;;;;;11.00;84.40;;;;;;5043845;28;19914;-86
2023/05/14 02:40:07;;;;;;;;;;;10.80;83.70;;;;;;5048788;28;20162;-86
2023/05/14 02:42:33;;;;;;;;;;;10.80;83.50;;;;;;5057212;28;20273;-86
2023/05/14 02:44:58;;;;;;;;;;;10.60;83.40;;;;;;5041720;28;19917;-86
2023/05/14 02:47:24;;;;;;;;;;;10.60;84.20;;;;;;5049804;28;19913;-86
2023/05/14 02:49:49;;;;;;;;;;;10.70;84.30;;;;;;5050889;28;20400;-87
2023/05/14 02:52:15;;;;;;;;;;;10.60;84.50;;;;;;5042861;28;20382;-86
2023/05/14 02:54:40;;;;;;;;;;;10.50;84.80;;;;;;5045993;28;20394;-86
2023/05/14 02:57:06;;;;;;;;;;;10.40;85.20;;;;;;5046940;28;19920;-86
2023/05/14 02:59:31;;;;;;;;;;;10.50;85.10;;;;;;5032953;28;19964;-86
2023/05/14 03:01:57;;;;;;;;;;;10.30;85.30;;;;;;5045270;28;19917;-87
2023/05/14 03:04:22;;;;;;;;;;;10.30;86.00;;;;;;5058385;28;19999;-86
2023/05/14 03:06:47;;;;;;;;;;;10.30;85.80;;;;;;5040839;28;19924;-86
2023/05/14 03:09:13;;;;;;;;;;;10.30;85.80;;;;;;5049515;28;19909;-86
2023/05/14 03:11:38;;;;;;;;;;;10.50;85.50;;;;;;5038712;28;19913;-86
2023/05/14 03:14:04;;;;;;;;;;;10.60;84.80;;;;;;5047173;28;19913;-86
2023/05/14 03:16:29;;;;;;;;;;;10.70;84.20;;;;;;5048913;28;19917;-86
2023/05/14 03:18:55;;;;;;;;;;;10.60;84.30;;;;;;5049608;28;19917;-86
2023/05/14 03:21:20;;;;;;;;;;;10.50;84.70;;;;;;5041878;28;19921;-86
2023/05/14 03:23:46;;;;;;;;;;;10.60;84.00;;;;;;5045304;28;20375;-86
2023/05/14 03:26:11;;;;;;;;;;;10.60;84.20;;;;;;5040660;28;19921;-86
2023/05/14 03:28:37;;;;;;;;;;;10.50;84.50;;;;;;5054216;28;20372;-87
2023/05/14 03:31:02;;;;;;;;;;;10.50;84.70;;;;;;5040395;28;19919;-86
2023/05/14 03:33:28;;;;;;;;;;;10.60;84.40;;;;;;5043418;28;19919;-85
2023/05/14 03:35:53;;;;;;;;;;;10.50;84.20;;;;;;5046437;28;20338;-86
2023/05/14 03:38:19;;;;;;;;;;;10.40;84.60;;;;;;5057477;28;19913;-86
2023/05/14 03:40:44;;;;;;;;;;;10.30;84.90;;;;;;5076553;28;19916;-85
2023/05/14 03:43:10;;;;;;;;;;;10.50;84.70;;;;;;5067127;28;19916;-86
2023/05/14 03:45:36;;;;;;;;;;;10.60;84.40;;;;;;5041130;28;19943;-86
2023/05/14 03:48:01;;;;;;;;;;;10.40;84.40;;;;;;5050694;28;20004;-86
2023/05/14 03:50:27;;;;;;;;;;;10.40;84.90;;;;;;5050939;28;20498;-86
2023/05/14 03:52:53;;;;;;;;;;;10.30;85.20;;;;;;5039908;28;19916;-86
2023/05/14 03:55:19;;;;;;;;;;;10.40;85.40;;;;;;5044691;28;19913;-86
2023/05/14 03:57:45;;;;;;;;;;;10.50;86.10;;;;;;5050634;28;19920;-86
2023/05/14 04:00:10;;;;;;;;;;;10.50;85.90;;;;;;5060497;28;19931;-87
2023/05/14 04:02:36;;;;;;;;;;;10.60;85.90;;;;;;5059681;28;19924;-86
2023/05/14 04:05:01;;;;;;;;;;;10.60;85.40;;;;;;5063286;28;19974;-87
2023/05/14 04:07:27;;;;;;;;;;;10.60;85.30;;;;;;5041780;28;20026;-85
2023/05/14 04:09:52;;;;;;;;;;;10.50;85.40;;;;;;5069741;28;19913;-85
2023/05/14 04:12:18;;;;;;;;;;;10.50;85.20;;;;;;5075039;28;19945;-85
2023/05/14 04:14:43;;;;;;;;;;;10.60;85.20;;;;;;5065113;28;20004;-86
2023/05/14 04:17:09;;;;;;;;;;;10.60;85.20;;;;;;5053515;28;19909;-86
2023/05/14 04:19:34;;;;;;;;;;;10.70;85.60;;;;;;5046492;28;19913;-86
2023/05/14 04:22:00;;;;;;;;;;;10.80;85.80;;;;;;5052885;28;19958;-86
2023/05/14 04:24:25;;;;;;;;;;;10.90;85.10;;;;;;5048665;28;19917;-86
2023/05/14 04:26:50;;;;;;;;;;;10.90;84.40;;;;;;5046397;28;19956;-86
2023/05/14 04:29:16;;;;;;;;;;;10.80;84.10;;;;;;5032216;28;19981;-86
2023/05/14 04:31:43;;;;;;;;;;;10.80;84.30;;;;;;5052923;28;19917;-86
2023/05/14 04:34:08;;;;;;;;;;;10.80;84.50;;;;;;5050382;28;20007;-86
2023/05/14 04:36:34;;;;;;;;;;;10.80;85.20;;;;;;5044942;28;20055;-86
2023/05/14 04:38:59;;;;;;;;;;;10.80;85.80;;;;;;5044511;28;19909;-86
2023/05/14 04:41:25;;;;;;;;;;;10.90;85.70;;;;;;5054052;28;19913;-86
2023/05/14 04:43:54;;;;;;;;;;;11.00;85.50;;;;;;5054883;28;19920;-85
2023/05/14 04:46:20;;;;;;;;;;;11.10;84.70;;;;;;5046524;28;19917;-86
2023/05/14 04:48:45;;;;;;;;;;;11.10;84.40;;;;;;5045494;28;19917;-85
2023/05/14 04:51:11;;;;;;;;;;;11.10;84.20;;;;;;5040668;28;19920;-86
2023/05/14 04:53:36;;;;;;;;;;;11.20;84.40;;;;;;5040113;28;19940;-86
2023/05/14 04:56:02;;;;;;;;;;;11.10;84.20;;;;;;5055792;28;19987;-86
2023/05/14 04:58:28;;;;;;;;;;;11.10;84.20;;;;;;5052069;28;20370;-86
2023/05/14 05:00:53;;;;;;;;;;;11.20;84.40;;;;;;5058054;28;19927;-85
2023/05/14 05:03:21;;;;;;;;;;;11.40;84.50;;;;;;5044307;28;20402;-86
2023/05/14 05:05:49;;;;;;;;;;;11.60;83.80;;;;;;5048913;28;19959;-86
2023/05/14 05:08:15;;;;;;;;;;;11.60;83.20;;;;;;5047466;28;19921;-85
2023/05/14 05:10:40;;;;;;;;;;;11.90;82.90;;;;;;5044097;28;20393;-87
2023/05/14 05:13:06;;;;;;;;;;;12.00;82.60;;;;;;5044086;28;19967;-86
2023/05/14 05:15:31;;;;;;;;;;;12.00;82.00;;;;;;5042962;28;19917;-86
2023/05/14 05:17:57;;;;;;;;;;;12.00;82.20;;;;;;5053407;28;19913;-87
2023/05/14 05:20:23;;;;;;;;;;;12.10;82.40;;;;;;5056878;28;19956;-86
2023/05/14 05:22:49;;;;;;;;;;;12.10;82.70;;;;;;5047656;28;19982;-86
2023/05/14 05:25:14;;;;;;;;;;;12.10;83.10;;;;;;5059606;28;19928;-86
2023/05/14 05:27:40;;;;;;;;;;;12.20;83.40;;;;;;5045112;28;19917;-87
2023/05/14 05:30:06;;;;;;;;;;;12.20;82.90;;;;;;5057143;28;19912;-86
2023/05/14 05:32:32;;;;;;;;;;;12.30;82.50;;;;;;5043154;28;19912;-86
2023/05/14 05:34:57;;;;;;;;;;;12.20;82.30;;;;;;5046151;28;19913;-86
2023/05/14 05:37:22;;;;;;;;;;;12.20;82.40;;;;;;5049288;28;19920;-87
2023/05/14 05:39:48;;;;;;;;;;;12.10;82.70;;;;;;5050831;28;19913;-86
2023/05/14 05:42:14;;;;;;;;;;;12.10;82.90;;;;;;5056096;28;19924;-86
2023/05/14 05:44:39;;;;;;;;;;;12.00;83.30;;;;;;5043291;28;20344;-86
2023/05/14 05:47:05;;;;;;;;;;;12.10;83.80;;;;;;5044845;28;19921;-86
2023/05/14 05:49:30;;;;;;;;;;;12.50;84.30;;;;;;5039305;28;19917;-86
2023/05/14 05:51:56;;;;;;;;;;;12.90;84.00;;;;;;5047789;28;19917;-87
2023/05/14 05:54:22;;;;;;;;;;;13.30;83.00;;;;;;5053861;28;19909;-86
2023/05/14 05:56:48;;;;;;;;;;;13.80;81.40;;;;;;5046000;28;20000;-86
2023/05/14 05:59:13;;;;;;;;;;;14.00;80.60;;;;;;5055453;28;20021;-86
2023/05/14 06:01:40;;;;;;;;;;;14.00;79.80;;;;;;5078263;28;19912;-86
2023/05/14 06:04:05;;;;;;;;;;;13.70;80.30;;;;;;5051698;28;20012;-86
2023/05/14 06:06:31;;;;;;;;;;;13.90;80.50;;;;;;5059167;22;20000;-82
2023/05/14 06:08:57;;;;;;;;;;;13.90;79.80;;;;;;5016845;28;19913;-81
2023/05/14 06:11:22;;;;;;;;;;;13.90;80.00;;;;;;5031935;28;19920;-82
2023/05/14 06:13:48;;;;;;;;;;;13.90;79.20;;;;;;5021869;28;19913;-81
2023/05/14 06:16:13;;;;;;;;;;;14.00;78.90;;;;;;5016949;28;19913;-81
2023/05/14 06:18:39;;;;;;;;;;;14.00;78.50;;;;;;5019242;28;19979;-81
2023/05/14 06:21:04;;;;;;;;;;;14.10;79.10;;;;;;5014543;28;19918;-81
2023/05/14 06:23:30;;;;;;;;;;;14.20;79.20;;;;;;5013936;28;19917;-81
2023/05/14 06:25:55;;;;;;;;;;;14.20;78.70;;;;;;5015499;28;19929;-81
2023/05/14 06:28:21;;;;;;;;;;;14.10;78.50;;;;;;5010059;28;20366;-81
2023/05/14 06:30:48;;;;;;;;;;;14.00;78.90;;;;;;5027987;28;20430;-81
2023/05/14 06:33:14;;;;;;;;;;;14.00;79.50;;;;;;5013512;28;19920;-82
2023/05/14 06:35:39;;;;;;;;;;;14.00;80.40;;;;;;5027304;28;19973;-82
2023/05/14 06:38:04;;;;;;;;;;;14.00;80.40;;;;;;5018231;28;19913;-80
2023/05/14 06:40:30;;;;;;;;;;;14.00;80.00;;;;;;5015576;28;19922;-80
2023/05/14 06:42:56;;;;;;;;;;;14.00;80.40;;;;;;5018018;28;20357;-81
2023/05/14 06:45:21;;;;;;;;;;;14.00;79.80;;;;;;5008146;28;19918;-82
2023/05/14 06:47:47;;;;;;;;;;;14.00;79.80;;;;;;5014824;28;19914;-82
2023/05/14 06:50:12;;;;;;;;;;;14.00;80.30;;;;;;5022902;28;19959;-81
2023/05/14 06:52:38;;;;;;;;;;;14.10;81.00;;;;;;5016245;28;19914;-82
2023/05/14 06:55:03;;;;;;;;;;;14.10;80.30;;;;;;5013089;28;19920;-81
2023/05/14 06:57:29;;;;;;;;;;;14.10;79.80;;;;;;5016886;28;19917;-81
2023/05/14 06:59:54;;;;;;;;;;;14.30;79.80;;;;;;5016844;28;20557;-81
2023/05/14 07:02:20;;;;;;;;;;;14.30;79.40;;;;;;5011778;28;19913;-80
2023/05/14 07:04:45;;;;;;;;;;;14.30;78.50;;;;;;5011623;28;19921;-79
2023/05/14 07:07:14;;;;;;;;;;;14.40;79.70;;;;;;5012755;28;19917;-80
2023/05/14 07:09:40;;;;;;;;;;;14.40;79.40;;;;;;5013862;28;19913;-80
2023/05/14 07:12:06;;;;;;;;;;;14.50;80.00;;;;;;5004328;28;19917;-81
2023/05/14 07:14:32;;;;;;;;;;;14.60;78.20;;;;;;5007738;28;19988;-81
2023/05/14 07:16:57;;;;;;;;;;;14.60;78.50;;;;;;5005142;28;20008;-81
2023/05/14 07:19:23;;;;;;;;;;;14.80;77.40;;;;;;5006026;28;19953;-80
2023/05/14 07:21:48;;;;;;;;;;;15.00;77.40;;;;;;5013819;28;19920;-80
2023/05/14 07:24:13;;;;;;;;;;;15.00;77.10;;;;;;5003799;28;19914;-81
2023/05/14 07:26:39;;;;;;;;;;;15.10;76.40;;;;;;5007456;28;19917;-80
2023/05/14 07:29:04;;;;;;;;;;;15.20;75.40;;;;;;5011059;28;19913;-80
2023/05/14 07:31:30;;;;;;;;;;;15.30;76.40;;;;;;5019051;28;19914;-81
2023/05/14 07:33:55;;;;;;;;;;;15.30;76.90;;;;;;5006824;28;19944;-81
2023/05/14 07:36:21;;;;;;;;;;;15.40;76.20;;;;;;5021180;28;19960;-81
2023/05/14 07:38:46;;;;;;;;;;;15.50;75.30;;;;;;5013217;28;19956;-82
2023/05/14 07:41:12;;;;;;;;;;;15.60;73.50;;;;;;5016285;28;20276;-81
2023/05/14 07:43:39;;;;;;;;;;;15.60;73.20;;;;;;5005213;28;20449;-82
2023/05/14 07:46:04;;;;;;;;;;;15.70;72.50;;;;;;5023061;28;20282;-83
2023/05/14 07:48:30;;;;;;;;;;;15.80;70.80;;;;;;5004246;28;19914;-82
2023/05/14 07:50:55;;;;;;;;;;;15.80;71.10;;;;;;5014670;28;19918;-81
2023/05/14 07:53:22;;;;;;;;;;;16.00;69.80;;;;;;5004985;28;20654;-81
2023/05/14 07:55:48;;;;;;;;;;;16.00;72.30;;;;;;5026226;28;19914;-81
2023/05/14 07:58:13;;;;;;;;;;;16.10;70.60;;;;;;5008631;28;19914;-81
2023/05/14 08:00:39;;;;;;;;;;;16.20;69.60;;;;;;5011412;28;19936;-82
2023/05/14 08:03:04;;;;;;;;;;;16.20;70.80;;;;;;5011921;28;19960;-81
2023/05/14 08:05:31;;;;;;;;;;;16.30;69.20;;;;;;5013135;28;19924;-82
2023/05/14 08:07:57;;;;;;;;;;;16.40;68.30;;;;;;5015018;28;20510;-81
2023/05/14 08:10:22;;;;;;;;;;;16.50;67.50;;;;;;5026758;28;19930;-81
2023/05/14 08:12:48;;;;;;;;;;;16.60;66.80;;;;;;5023815;28;19921;-81
2023/05/14 08:15:13;;;;;;;;;;;16.60;65.40;;;;;;5009937;28;20239;-83
2023/05/14 08:17:39;;;;;;;;;;;16.70;68.70;;;;;;5023920;28;19955;-82
2023/05/14 08:20:05;;;;;;;;;;;16.80;66.70;;;;;;5008178;28;19920;-81
2023/05/14 08:22:31;;;;;;;;;;;16.80;68.00;;;;;;5008116;28;19914;-81
2023/05/14 08:24:56;;;;;;;;;;;17.00;64.40;;;;;;4999230;28;19920;-81
2023/05/14 08:27:22;;;;;;;;;;;17.10;64.40;;;;;;5006434;28;20361;-82
2023/05/14 08:29:47;;;;;;;;;;;17.10;65.90;;;;;;5007115;28;20394;-83
2023/05/14 08:32:12;;;;;;;;;;;17.20;62.80;;;;;;5007549;28;19967;-84
2023/05/14 08:34:38;;;;;;;;;;;17.20;63.10;;;;;;5007901;28;19910;-84
2023/05/14 08:37:03;;;;;;;;;;;17.20;63.10;;;;;;5008579;28;19913;-84
2023/05/14 08:39:29;;;;;;;;;;;17.20;64.50;;;;;;5020892;28;19914;-82
2023/05/14 08:41:56;;;;;;;;;;;17.20;64.20;;;;;;5011916;28;19936;-82
2023/05/14 08:44:28;;;;;;;;;;;17.30;60.70;;;;;;5020712;28;20008;-82
2023/05/14 08:46:54;;;;;;;;;;;17.20;63.50;;;;;;5008839;28;19917;-82
2023/05/14 08:49:19;;;;;;;;;;;17.50;63.80;;;;;;5009921;28;20028;-82
2023/05/14 08:51:47;;;;;;;;;;;17.50;63.40;;;;;;5013187;28;20293;-83
2023/05/14 08:54:15;;;;;;;;;;;17.40;63.70;;;;;;5020820;28;21297;-82
2023/05/14 08:56:42;;;;;;;;;;;17.60;61.60;;;;;;5001939;28;20364;-83
2023/05/14 08:59:08;;;;;;;;;;;17.60;61.60;;;;;;5020234;28;19910;-82
2023/05/14 09:01:33;;;;;;;;;;;17.60;60.50;;;;;;5008443;28;20402;-83
2023/05/14 09:04:00;;;;;;;;;;;17.70;62.70;;;;;;5011006;28;19937;-82
2023/05/14 09:06:26;;;;;;;;;;;17.80;62.40;;;;;;5011356;28;19922;-83
2023/05/14 09:08:51;;;;;;;;;;;17.90;62.90;;;;;;4999761;28;20382;-82
2023/05/14 09:11:17;;;;;;;;;;;17.90;60.60;;;;;;5013398;28;19986;-83
2023/05/14 09:13:42;;;;;;;;;;;17.90;60.20;;;;;;5011933;28;19914;-84
2023/05/14 09:16:08;;;;;;;;;;;18.00;59.30;;;;;;5011132;28;19917;-83
2023/05/14 09:18:34;;;;;;;;;;;18.10;57.10;;;;;;5015545;28;19914;-83
2023/05/14 09:21:00;;;;;;;;;;;18.30;56.20;;;;;;5016699;28;19957;-85
2023/05/14 09:23:26;;;;;;;;;;;18.20;55.80;;;;;;5010091;28;20609;-83
2023/05/14 09:25:51;;;;;;;;;;;18.20;57.20;;;;;;5026335;28;19959;-84
2023/05/14 09:28:17;;;;;;;;;;;18.40;56.00;;;;;;5016004;28;20279;-84
2023/05/14 09:30:46;;;;;;;;;;;18.40;57.40;;;;;;5035746;28;19910;-84
2023/05/14 09:33:24;;;;;;;;;;;18.30;53.20;;;;;;5026724;28;20002;-83
2023/05/14 09:35:49;;;;;;;;;;;18.20;58.70;;;;;;5046449;28;19913;-82
2023/05/14 09:38:15;;;;;;;;;;;18.30;57.20;;;;;;5010236;28;20236;-83
2023/05/14 09:40:40;;;;;;;;;;;18.40;57.60;;;;;;5020197;28;19913;-83
2023/05/14 09:43:06;;;;;;;;;;;18.50;57.20;;;;;;5012828;28;19961;-84
2023/05/14 09:45:31;;;;;;;;;;;18.50;57.30;;;;;;5018151;28;20386;-84
2023/05/14 09:47:58;;;;;;;;;;;18.60;54.50;;;;;;5016499;28;19914;-83
2023/05/14 09:50:25;;;;;;;;;;;18.60;57.00;;;;;;5016521;28;19918;-84
2023/05/14 09:52:50;;;;;;;;;;;18.60;54.40;;;;;;5030366;28;19981;-84
2023/05/14 09:55:16;;;;;;;;;;;18.70;53.60;;;;;;5027647;28;19976;-83
2023/05/14 09:57:41;;;;;;;;;;;18.60;54.40;;;;;;5035059;28;19905;-84
2023/05/14 10:00:08;;;;;;;;;;;18.60;52.70;;;;;;5018614;28;19910;-83
2023/05/14 10:02:36;;;;;;;;;;;18.70;51.60;;;;;;5013374;28;19918;-84
2023/05/14 10:05:03;;;;;;;;;;;18.70;52.80;;;;;;5022190;28;19914;-84
2023/05/14 10:07:32;;;;;;;;;;;18.60;53.60;;;;;;5016262;28;19971;-84
2023/05/14 10:10:00;;;;;;;;;;;18.60;54.00;;;;;;5022706;28;20000;-84
2023/05/14 10:12:27;;;;;;;;;;;18.70;52.30;;;;;;5034654;28;19944;-83
2023/05/14 10:14:56;;;;;;;;;;;18.80;50.90;;;;;;5037736;28;19920;-84
2023/05/14 10:17:24;;;;;;;;;;;18.70;51.90;;;;;;5030132;28;19941;-83
2023/05/14 10:19:53;;;;;;;;;;;18.70;51.80;;;;;;5008962;28;20295;-83
2023/05/14 10:22:21;;;;;;;;;;;18.90;54.20;;;;;;5011868;28;19914;-87
2023/05/14 10:24:49;;;;;;;;;;;18.70;53.30;;;;;;4998528;28;19921;-83
2023/05/14 10:27:16;;;;;;;;;;;18.90;50.50;;;;;;5007276;28;20368;-84
2023/05/14 10:29:49;;;;;;;;;;;18.90;53.60;;;;;;5016115;28;20294;-84
2023/05/14 10:32:15;;;;;;;;;;;19.00;53.50;;;;;;5006805;28;19921;-83
2023/05/14 10:34:42;;;;;;;;;;;19.00;50.50;;;;;;5002109;28;19914;-85
2023/05/14 10:37:09;;;;;;;;;;;19.10;49.40;;;;;;5009584;28;19920;-84
2023/05/14 10:39:52;;;;;;;;;;;19.00;52.00;;;;;;5026977;28;19953;-83
2023/05/14 10:42:19;;;;;;;;;;;19.10;53.40;;;;;;5004899;28;20023;-84
2023/05/14 10:44:49;;;;;;;;;;;19.00;52.80;;;;;;5011597;28;20036;-85
2023/05/14 10:47:16;;;;;;;;;;;19.30;51.00;;;;;;5026089;28;20419;-84
2023/05/14 10:49:42;;;;;;;;;;;19.30;50.50;;;;;;5011650;28;19914;-83
2023/05/14 10:52:08;;;;;;;;;;;19.30;49.00;;;;;;5013732;28;19914;-84
2023/05/14 10:54:36;;;;;;;;;;;19.30;48.80;;;;;;5024091;28;19932;-84
2023/05/14 10:57:02;;;;;;;;;;;19.20;49.90;;;;;;5010531;28;19914;-84
2023/05/14 10:59:28;;;;;;;;;;;19.50;47.90;;;;;;5022753;28;19924;-85
2023/05/14 11:01:55;;;;;;;;;;;19.50;53.10;;;;;;5008985;28;20005;-83
2023/05/14 11:04:26;;;;;;;;;;;19.50;54.60;;;;;;5000380;28;20455;-82
2023/05/14 11:06:52;;;;;;;;;;;19.50;53.60;;;;;;5023509;28;19921;-84
2023/05/14 11:09:19;;;;;;;;;;;19.60;56.40;;;;;;5004415;28;20253;-84
2023/05/14 11:11:46;;;;;;;;;;;19.60;53.00;;;;;;5010889;28;20068;-84
2023/05/14 11:14:12;;;;;;;;;;;19.80;52.20;;;;;;5024434;28;19935;-84
2023/05/14 11:16:37;;;;;;;;;;;19.60;52.00;;;;;;5005248;28;20379;-86
2023/05/14 11:19:03;;;;;;;;;;;19.60;50.40;;;;;;5013302;28;19910;-84
2023/05/14 11:21:31;;;;;;;;;;;19.70;49.50;;;;;;5014504;28;21757;-84
2023/05/14 11:23:58;;;;;;;;;;;19.60;51.10;;;;;;5014796;28;19956;-84
2023/05/14 11:26:23;;;;;;;;;;;19.60;50.50;;;;;;5014718;28;19960;-84
2023/05/14 11:28:49;;;;;;;;;;;19.60;52.60;;;;;;5013419;28;19941;-85
2023/05/14 11:31:14;;;;;;;;;;;19.60;51.70;;;;;;5000922;28;20004;-84
2023/05/14 11:33:40;;;;;;;;;;;19.60;53.30;;;;;;5007672;28;19928;-83
2023/05/14 11:36:06;;;;;;;;;;;19.70;52.50;;;;;;5011177;28;20180;-83
2023/05/14 11:38:31;;;;;;;;;;;19.60;51.50;;;;;;5012633;28;20020;-83
2023/05/14 11:40:58;;;;;;;;;;;19.50;50.60;;;;;;5019964;28;19913;-83
2023/05/14 11:43:25;;;;;;;;;;;19.60;52.60;;;;;;5021966;28;20008;-83
2023/05/14 11:45:51;;;;;;;;;;;19.60;52.80;;;;;;5001516;28;19917;-86
2023/05/14 11:48:17;;;;;;;;;;;19.60;54.80;;;;;;5007013;28;19925;-84
2023/05/14 11:50:46;;;;;;;;;;;19.60;48.10;;;;;;5008947;28;19914;-83
2023/05/14 11:53:15;;;;;;;;;;;19.70;50.10;;;;;;5023445;28;19972;-83
2023/05/14 11:55:40;;;;;;;;;;;19.70;50.00;;;;;;5021879;28;19914;-84
2023/05/14 11:58:06;;;;;;;;;;;19.70;52.20;;;;;;5029005;28;19975;-84
2023/05/14 12:00:33;;;;;;;;;;;19.80;54.80;;;;;;5010623;28;19940;-83
2023/05/14 12:02:58;;;;;;;;;;;20.00;48.50;;;;;;5000683;28;19914;-83
2023/05/14 12:05:24;;;;;;;;;;;20.10;47.60;;;;;;5024241;28;20401;-84
2023/05/14 12:07:55;;;;;;;;;;;20.10;47.10;;;;;;5035192;28;20012;-84
2023/05/14 12:10:21;;;;;;;;;;;20.10;46.50;;;;;;5012977;28;19953;-83
2023/05/14 12:12:46;;;;;;;;;;;20.00;46.80;;;;;;5029220;28;19925;-84
2023/05/14 12:15:12;;;;;;;;;;;20.00;47.70;;;;;;5020377;28;19949;-84
2023/05/14 12:17:38;;;;;;;;;;;19.80;47.70;;;;;;5011904;28;19961;-83
2023/05/14 12:20:06;;;;;;;;;;;19.80;47.90;;;;;;5006000;28;19914;-83
2023/05/14 12:22:33;;;;;;;;;;;19.80;49.40;;;;;;5024397;28;19914;-83
2023/05/14 12:24:58;;;;;;;;;;;19.90;46.70;;;;;;5009618;28;20385;-83
2023/05/14 12:27:25;;;;;;;;;;;20.00;47.50;;;;;;5022716;28;19948;-83
2023/05/14 12:30:04;;;;;;;;;;;20.30;48.20;;;;;;5010281;28;20000;-83
2023/05/14 12:32:33;;;;;;;;;;;20.30;48.50;;;;;;5003910;28;20285;-84
2023/05/14 12:35:00;;;;;;;;;;;20.20;47.90;;;;;;5004806;28;19913;-84
2023/05/14 12:37:25;;;;;;;;;;;20.10;47.20;;;;;;5005751;28;19932;-87
2023/05/14 12:39:50;;;;;;;;;;;20.20;46.60;;;;;;5058389;22;20349;-79
2023/05/14 12:42:16;;;;;;;;;;;20.30;46.40;;;;;;5046736;28;19913;-82
2023/05/14 12:44:41;;;;;;;;;;;20.50;48.40;;;;;;5046917;28;20184;-81
2023/05/14 12:47:07;;;;;;;;;;;20.70;51.90;;;;;;5054999;28;20017;-82
2023/05/14 12:49:32;;;;;;;;;;;20.70;47.50;;;;;;5032259;28;19921;-82
2023/05/14 12:51:58;;;;;;;;;;;20.60;46.90;;;;;;5036373;28;20329;-82
2023/05/14 12:54:23;;;;;;;;;;;20.50;46.90;;;;;;5028025;28;20288;-82
2023/05/14 12:56:49;;;;;;;;;;;20.40;49.20;;;;;;5030185;28;19916;-82
2023/05/14 12:59:14;;;;;;;;;;;20.40;50.70;;;;;;5035694;28;20637;-82
2023/05/14 13:01:40;;;;;;;;;;;20.20;50.60;;;;;;5036527;28;19901;-82
2023/05/14 13:04:06;;;;;;;;;;;20.10;52.20;;;;;;5021956;28;19917;-82
2023/05/14 13:06:32;;;;;;;;;;;20.00;51.70;;;;;;5040392;28;19979;-82
2023/05/14 13:09:00;;;;;;;;;;;20.10;52.50;;;;;;5031083;28;19941;-82
2023/05/14 13:11:28;;;;;;;;;;;20.10;52.50;;;;;;5035484;28;19941;-82
2023/05/14 13:13:53;;;;;;;;;;;20.10;50.70;;;;;;5037209;28;19909;-83
2023/05/14 13:16:19;;;;;;;;;;;20.50;49.30;;;;;;5039319;28;19959;-83
2023/05/14 13:18:44;;;;;;;;;;;20.80;47.70;;;;;;5032785;28;19924;-81
2023/05/14 13:21:11;;;;;;;;;;;20.90;53.10;;;;;;5039731;28;19952;-82
2023/05/14 13:23:37;;;;;;;;;;;20.60;51.40;;;;;;5029888;28;19924;-82
2023/05/14 13:26:03;;;;;;;;;;;20.40;52.30;;;;;;5027720;28;19917;-82
2023/05/14 13:28:28;;;;;;;;;;;20.30;53.10;;;;;;5021759;28;19940;-83
2023/05/14 13:31:06;;;;;;;;;;;20.20;52.00;;;;;;5037676;28;19916;-83
2023/05/14 13:33:32;;;;;;;;;;;20.30;50.90;;;;;;5038647;28;19964;-83
2023/05/14 13:35:57;;;;;;;;;;;20.50;49.00;;;;;;5035691;28;20349;-82
2023/05/14 13:38:23;;;;;;;;;;;20.50;51.00;;;;;;5019968;28;19956;-82
2023/05/14 13:40:48;;;;;;;;;;;20.60;50.40;;;;;;5019921;28;19921;-82
2023/05/14 13:43:15;;;;;;;;;;;20.60;49.00;;;;;;5014814;28;19981;-82
2023/05/14 13:45:41;;;;;;;;;;;20.70;47.50;;;;;;5026270;28;19917;-83
2023/05/14 13:48:06;;;;;;;;;;;20.80;48.40;;;;;;5027642;28;19966;-83
2023/05/14 13:50:32;;;;;;;;;;;21.10;48.30;;;;;;5031664;28;19913;-83
2023/05/14 13:52:57;;;;;;;;;;;21.30;48.50;;;;;;5018937;28;19917;-83
2023/05/14 13:55:22;;;;;;;;;;;21.20;51.30;;;;;;5026462;28;19917;-82
2023/05/14 13:57:48;;;;;;;;;;;21.20;50.20;;;;;;5027298;28;19947;-83
2023/05/14 14:00:14;;;;;;;;;;;21.10;50.10;;;;;;5037185;28;19956;-82
2023/05/14 14:02:40;;;;;;;;;;;21.00;49.80;;;;;;5031163;28;19909;-82
2023/05/14 14:05:05;;;;;;;;;;;20.90;48.70;;;;;;5032317;28;19963;-82
2023/05/14 14:07:31;;;;;;;;;;;20.70;50.60;;;;;;5020249;28;20414;-82
2023/05/14 14:09:56;;;;;;;;;;;20.60;51.60;;;;;;5030790;28;19924;-82